Bookmark and Share
Track history (hours):
 

Wilson Clyde

Last reported at 2014-Apr-23 14:32 UTC. Time now 2014-Apr-23 15:31 UTC.
Position N 54°32' E 018°33'.

Length 100 m; draft 6.5 m.

Type: Ship. MMSI: 314187000.

NotesDate/timePositionNaut miles runAvg speedWind from/ knotsBaromVisibWave heightAir tempDewpointWater temp
2014-Apr-23 14:32N 54°32' E 018°33'0 0.0
2014-Apr-23 13:32N 54°32' E 018°33'0 0.0
2014-Apr-23 12:32N 54°32' E 018°33'0 0.0
2014-Apr-23 11:32N 54°32' E 018°33'0 0.0
2014-Apr-23 10:32N 54°32' E 018°33'0 0.0
2014-Apr-23 09:32N 54°32' E 018°33'0 0.0
2014-Apr-23 08:32N 54°32' E 018°33'0 0.0
2014-Apr-23 07:32N 54°32' E 018°33'0 0.0
2014-Apr-23 06:32N 54°32' E 018°33'0 0.0
2014-Apr-23 05:32N 54°32' E 018°33'0 0.0
2014-Apr-23 04:32N 54°32' E 018°33'0 0.0
2014-Apr-23 03:32N 54°32' E 018°33'0 0.0
2014-Apr-23 02:33N 54°32' E 018°33'7 6.6
2014-Apr-23 01:34N 54°32' E 018°45'10 9.9
2014-Apr-23 00:33N 54°40' E 018°56'1010.3
2014-Apr-22 23:33N 54°47' E 018°44'1010.3
2014-Apr-22 22:34N 54°52' E 018°28'1010.2
2014-Apr-22 21:33N 54°54' E 018°11'1010.2
2014-Apr-22 20:33N 54°54' E 017°53'1110.2
2014-Apr-22 19:27N 54°53' E 017°33'1110.1
2014-Apr-22 18:23N 54°52' E 017°15'8 9.9
2014-Apr-22 17:33N 54°50' E 017°01'71 9.9
2014-Apr-22 10:25N 54°53' E 014°58'9 9.9
2014-Apr-22 09:28N 54°54' E 014°42'910.0
2014-Apr-22 08:33N 54°56' E 014°27'1010.3
2014-Apr-22 07:33N 54°57' E 014°09'1010.1
2014-Apr-22 06:33N 55°01' E 013°52'10 9.6
2014-Apr-22 05:30N 55°04' E 013°36'9 9.2
2014-Apr-22 04:33N 55°07' E 013°22'9 9.2
2014-Apr-22 03:33N 55°11' E 013°06'10 9.4
2014-Apr-22 02:32N 55°14' E 012°51'9 9.0
2014-Apr-22 01:33N 55°19' E 012°38'10 9.7
2014-Apr-22 00:33N 55°29' E 012°41'9 8.9
2014-Apr-21 23:33N 55°37' E 012°42'9 8.7
2014-Apr-21 22:33N 55°46' E 012°41'9 9.2
2014-Apr-21 21:33N 55°55' E 012°38'8 8.5
2014-Apr-21 20:33N 56°04' E 012°38'8 7.6
2014-Apr-21 19:33N 56°09' E 012°27'10 9.9
2014-Apr-21 18:33N 56°14' E 012°13'9 9.4
2014-Apr-21 17:33N 56°22' E 012°02'2210.3
2014-Apr-21 15:25N 56°43' E 011°53'910.3
2014-Apr-21 14:33N 56°52' E 011°48'1010.3
2014-Apr-21 13:33N 57°01' E 011°41'1410.1
2014-Apr-21 12:08N 57°15' E 011°32'610.2
2014-Apr-21 11:33N 57°20' E 011°29'10 9.7
2014-Apr-21 10:33N 57°29' E 011°20'10 9.7
2014-Apr-21 09:33N 57°33' E 011°04'10 9.7
2014-Apr-21 08:33N 57°37' E 010°47'7 5.9
2014-Apr-21 07:25N 57°40' E 010°36'0 0.0
2014-Apr-21 06:31N 57°40' E 010°36'0 0.0
2014-Apr-21 05:31N 57°40' E 010°36'0 0.1
2014-Apr-21 03:13N 57°40' E 010°36'0 0.0
2014-Apr-21 02:31N 57°40' E 010°36'0 0.1
2014-Apr-21 01:28N 57°40' E 010°36'2 2.4
2014-Apr-21 00:33N 57°42' E 010°38'5 5.4
2014-Apr-20 23:33N 57°47' E 010°38'9 9.4
2014-Apr-20 22:33N 57°47' E 010°21'9 9.4
2014-Apr-20 21:33N 57°48' E 010°03'9 8.5
2014-Apr-20 20:30N 57°49' E 009°46'112 9.2
2014-Apr-20 08:20N 58°07' E 006°18'810.1
2014-Apr-20 07:33N 58°12' E 006°07'10 9.8
2014-Apr-20 06:33N 58°19' E 005°54'1010.0
2014-Apr-20 05:33N 58°26' E 005°40'10 9.4
2014-Apr-20 04:29N 58°35' E 005°29'1010.3
2014-Apr-20 03:30N 58°43' E 005°18'1010.7
2014-Apr-20 02:33N 58°52' E 005°08'1010.5
2014-Apr-20 01:33N 59°01' E 004°58'1110.3
2014-Apr-20 00:32N 59°09' E 004°46'7 0.1
2014-Apr-17 22:26N 59°03' E 004°53'6 7.1
2014-Apr-17 21:33N 58°58' E 005°01'8 8.2
2014-Apr-17 20:33N 58°51' E 005°09'8 7.5
2014-Apr-17 19:32N 58°45' E 005°17'10 9.6
2014-Apr-17 18:29N 58°36' E 005°26'9 9.7
2014-Apr-17 17:33N 58°29' E 005°36'1010.2
2014-Apr-17 16:33N 58°21' E 005°50'1010.1
2014-Apr-17 15:34N 58°14' E 006°03'1010.1
2014-Apr-17 14:33N 58°07' E 006°17'92 6.8
2014-Apr-17 01:04N 58°29' E 009°07'610.5
2014-Apr-17 00:32N 58°34' E 009°14'1010.6
2014-Apr-16 23:33N 58°42' E 009°27'1310.1
2014-Apr-16 22:17N 58°51' E 009°44'8 9.2
2014-Apr-16 21:27N 58°59' E 009°46'  
2014-Apr-14 08:32N 58°06' E 005°44'9 8.8
2014-Apr-14 07:33N 58°12' E 005°32'  

Dump ship's entire track history

sailing weather and tide predictions

Wilson Clyde — 8PRV — position and weather